sensor_id;sensor_type;location;lat;lon;timestamp;pressure;altitude;pressure_sealevel;temperature;humidity
5574;BME280;2563;52.242;7.956;2023-05-09T00:01:32;100696.06;;;15.58;100.00
5574;BME280;2563;52.242;7.956;2023-05-09T00:03:59;100694.38;;;15.57;100.00
5574;BME280;2563;52.242;7.956;2023-05-09T00:06:25;100699.44;;;15.60;100.00
5574;BME280;2563;52.242;7.956;2023-05-09T00:08:55;100695.34;;;15.54;100.00
5574;BME280;2563;52.242;7.956;2023-05-09T00:11:20;100694.75;;;15.47;100.00
5574;BME280;2563;52.242;7.956;2023-05-09T00:13:47;100690.56;;;15.45;100.00
5574;BME280;2563;52.242;7.956;2023-05-09T00:16:13;100693.34;;;15.40;100.00
5574;BME280;2563;52.242;7.956;2023-05-09T00:18:40;100695.59;;;15.48;100.00
5574;BME280;2563;52.242;7.956;2023-05-09T00:21:07;100691.13;;;15.51;100.00
5574;BME280;2563;52.242;7.956;2023-05-09T00:23:33;100681.00;;;15.45;100.00
5574;BME280;2563;52.242;7.956;2023-05-09T00:25:58;100690.59;;;15.43;100.00
5574;BME280;2563;52.242;7.956;2023-05-09T00:28:24;100685.56;;;15.40;100.00
5574;BME280;2563;52.242;7.956;2023-05-09T00:30:49;100687.13;;;15.44;100.00
5574;BME280;2563;52.242;7.956;2023-05-09T00:33:15;100681.25;;;15.39;100.00
5574;BME280;2563;52.242;7.956;2023-05-09T00:35:40;100674.53;;;15.35;100.00
5574;BME280;2563;52.242;7.956;2023-05-09T00:38:05;100674.25;;;15.41;100.00
5574;BME280;2563;52.242;7.956;2023-05-09T00:40:31;100662.84;;;15.45;100.00
5574;BME280;2563;52.242;7.956;2023-05-09T00:42:58;100660.13;;;15.48;100.00
5574;BME280;2563;52.242;7.956;2023-05-09T00:45:23;100663.34;;;15.53;100.00
5574;BME280;2563;52.242;7.956;2023-05-09T00:47:49;100646.13;;;15.52;100.00
5574;BME280;2563;52.242;7.956;2023-05-09T00:50:14;100636.72;;;15.50;100.00
5574;BME280;2563;52.242;7.956;2023-05-09T00:52:40;100643.56;;;15.51;100.00
5574;BME280;2563;52.242;7.956;2023-05-09T00:55:06;100632.41;;;15.49;100.00
5574;BME280;2563;52.242;7.956;2023-05-09T00:57:32;100628.34;;;15.43;100.00
5574;BME280;2563;52.242;7.956;2023-05-09T00:59:59;100634.56;;;15.39;100.00
5574;BME280;2563;52.242;7.956;2023-05-09T01:02:24;100623.50;;;15.36;100.00
5574;BME280;2563;52.242;7.956;2023-05-09T01:04:51;100636.19;;;15.42;100.00
5574;BME280;2563;52.242;7.956;2023-05-09T01:07:37;100632.75;;;15.41;100.00
5574;BME280;2563;52.242;7.956;2023-05-09T01:15:33;100619.13;;;15.36;100.00
5574;BME280;2563;52.242;7.956;2023-05-09T01:23:49;100596.53;;;15.19;100.00
5574;BME280;2563;52.242;7.956;2023-05-09T01:26:43;100593.28;;;15.14;100.00
5574;BME280;2563;52.242;7.956;2023-05-09T01:32:03;100590.13;;;15.07;100.00
5574;BME280;2563;52.242;7.956;2023-05-09T01:34:31;100596.31;;;15.03;100.00
5574;BME280;2563;52.242;7.956;2023-05-09T01:36:58;100599.69;;;15.05;100.00
5574;BME280;2563;52.242;7.956;2023-05-09T01:39:25;100592.06;;;15.02;100.00
5574;BME280;2563;52.242;7.956;2023-05-09T01:41:55;100576.00;;;14.94;100.00
5574;BME280;2563;52.242;7.956;2023-05-09T01:44:22;100581.19;;;14.94;100.00
5574;BME280;2563;52.242;7.956;2023-05-09T01:46:52;100593.09;;;14.98;100.00
5574;BME280;2563;52.242;7.956;2023-05-09T01:49:19;100583.63;;;14.97;100.00
5574;BME280;2563;52.242;7.956;2023-05-09T01:51:46;100574.25;;;14.95;100.00
5574;BME280;2563;52.242;7.956;2023-05-09T01:54:13;100570.03;;;14.92;100.00
5574;BME280;2563;52.242;7.956;2023-05-09T01:56:39;100570.88;;;14.93;100.00
5574;BME280;2563;52.242;7.956;2023-05-09T01:59:06;100572.63;;;14.92;100.00
5574;BME280;2563;52.242;7.956;2023-05-09T02:01:33;100565.88;;;14.88;100.00
5574;BME280;2563;52.242;7.956;2023-05-09T02:03:59;100560.81;;;14.85;100.00
5574;BME280;2563;52.242;7.956;2023-05-09T02:06:25;100577.81;;;14.92;100.00
5574;BME280;2563;52.242;7.956;2023-05-09T02:08:54;100570.81;;;14.94;100.00
5574;BME280;2563;52.242;7.956;2023-05-09T02:11:20;100555.38;;;14.91;100.00
5574;BME280;2563;52.242;7.956;2023-05-09T02:13:45;100557.19;;;14.89;100.00
5574;BME280;2563;52.242;7.956;2023-05-09T02:16:11;100555.13;;;14.97;100.00
5574;BME280;2563;52.242;7.956;2023-05-09T02:18:36;100544.75;;;14.97;100.00
5574;BME280;2563;52.242;7.956;2023-05-09T02:21:02;100546.44;;;14.98;100.00
5574;BME280;2563;52.242;7.956;2023-05-09T02:23:28;100535.28;;;14.96;100.00
5574;BME280;2563;52.242;7.956;2023-05-09T02:25:54;100545.59;;;14.98;100.00
5574;BME280;2563;52.242;7.956;2023-05-09T02:28:21;100535.47;;;14.92;100.00
5574;BME280;2563;52.242;7.956;2023-05-09T02:30:48;100522.94;;;14.82;100.00
5574;BME280;2563;52.242;7.956;2023-05-09T02:33:14;100515.53;;;14.73;100.00
5574;BME280;2563;52.242;7.956;2023-05-09T02:35:43;100510.53;;;14.68;100.00
5574;BME280;2563;52.242;7.956;2023-05-09T02:38:09;100510.69;;;14.65;100.00
5574;BME280;2563;52.242;7.956;2023-05-09T02:40:34;100510.78;;;14.62;100.00
5574;BME280;2563;52.242;7.956;2023-05-09T02:43:00;100504.63;;;14.65;100.00
5574;BME280;2563;52.242;7.956;2023-05-09T02:45:26;100509.06;;;14.63;100.00
5574;BME280;2563;52.242;7.956;2023-05-09T02:47:51;100511.56;;;14.64;100.00
5574;BME280;2563;52.242;7.956;2023-05-09T02:50:17;100508.94;;;14.66;100.00
5574;BME280;2563;52.242;7.956;2023-05-09T02:52:42;100511.06;;;14.77;100.00
5574;BME280;2563;52.242;7.956;2023-05-09T02:55:08;100503.03;;;14.83;100.00
5574;BME280;2563;52.242;7.956;2023-05-09T02:57:33;100503.81;;;14.85;100.00
5574;BME280;2563;52.242;7.956;2023-05-09T03:00:00;100502.75;;;14.89;100.00
5574;BME280;2563;52.242;7.956;2023-05-09T03:02:25;100490.06;;;14.83;100.00
5574;BME280;2563;52.242;7.956;2023-05-09T03:04:50;100487.50;;;14.83;100.00
5574;BME280;2563;52.242;7.956;2023-05-09T03:07:16;100469.03;;;14.70;100.00
5574;BME280;2563;52.242;7.956;2023-05-09T03:09:41;100478.69;;;14.66;100.00
5574;BME280;2563;52.242;7.956;2023-05-09T03:12:07;100481.31;;;14.65;100.00
5574;BME280;2563;52.242;7.956;2023-05-09T03:14:32;100479.06;;;14.57;100.00
5574;BME280;2563;52.242;7.956;2023-05-09T03:16:57;100470.03;;;14.45;100.00
5574;BME280;2563;52.242;7.956;2023-05-09T03:19:23;100466.13;;;14.35;100.00
5574;BME280;2563;52.242;7.956;2023-05-09T03:21:48;100462.81;;;14.32;100.00
5574;BME280;2563;52.242;7.956;2023-05-09T03:24:13;100468.13;;;14.29;100.00
5574;BME280;2563;52.242;7.956;2023-05-09T03:26:39;100464.75;;;14.26;100.00
5574;BME280;2563;52.242;7.956;2023-05-09T03:29:04;100459.72;;;14.23;100.00
5574;BME280;2563;52.242;7.956;2023-05-09T03:31:30;100461.50;;;14.21;100.00
5574;BME280;2563;52.242;7.956;2023-05-09T03:33:56;100449.81;;;14.13;100.00
5574;BME280;2563;52.242;7.956;2023-05-09T03:36:21;100438.44;;;13.95;100.00
5574;BME280;2563;52.242;7.956;2023-05-09T03:38:47;100449.03;;;13.89;100.00
5574;BME280;2563;52.242;7.956;2023-05-09T03:41:16;100441.50;;;13.82;100.00
5574;BME280;2563;52.242;7.956;2023-05-09T03:43:43;100439.06;;;13.79;100.00
5574;BME280;2563;52.242;7.956;2023-05-09T03:46:08;100434.09;;;13.73;100.00
5574;BME280;2563;52.242;7.956;2023-05-09T03:48:33;100429.84;;;13.72;100.00
5574;BME280;2563;52.242;7.956;2023-05-09T03:50:59;100437.72;;;13.69;100.00
5574;BME280;2563;52.242;7.956;2023-05-09T03:53:25;100435.03;;;13.72;100.00
5574;BME280;2563;52.242;7.956;2023-05-09T03:55:50;100446.16;;;13.74;100.00
5574;BME280;2563;52.242;7.956;2023-05-09T03:58:15;100433.97;;;13.76;100.00
5574;BME280;2563;52.242;7.956;2023-05-09T04:00:43;100443.97;;;13.86;100.00
5574;BME280;2563;52.242;7.956;2023-05-09T04:03:08;100446.97;;;13.97;100.00
5574;BME280;2563;52.242;7.956;2023-05-09T04:05:34;100426.28;;;13.97;100.00
5574;BME280;2563;52.242;7.956;2023-05-09T04:08:00;100422.78;;;13.98;100.00
5574;BME280;2563;52.242;7.956;2023-05-09T04:10:25;100419.16;;;14.02;100.00
5574;BME280;2563;52.242;7.956;2023-05-09T04:12:50;100428.03;;;14.17;100.00
5574;BME280;2563;52.242;7.956;2023-05-09T04:15:16;100424.31;;;14.24;100.00
5574;BME280;2563;52.242;7.956;2023-05-09T04:17:42;100423.13;;;14.31;100.00
5574;BME280;2563;52.242;7.956;2023-05-09T04:20:08;100467.66;;;14.82;100.00
5574;BME280;2563;52.242;7.956;2023-05-09T04:22:34;100448.88;;;15.54;100.00
5574;BME280;2563;52.242;7.956;2023-05-09T04:25:00;100431.97;;;15.64;100.00
5574;BME280;2563;52.242;7.956;2023-05-09T04:27:26;100401.44;;;15.33;100.00
5574;BME280;2563;52.242;7.956;2023-05-09T04:29:52;100404.00;;;14.95;100.00
5574;BME280;2563;52.242;7.956;2023-05-09T04:32:17;100420.50;;;14.94;100.00
5574;BME280;2563;52.242;7.956;2023-05-09T04:34:45;100451.31;;;15.00;100.00
5574;BME280;2563;52.242;7.956;2023-05-09T04:37:10;100459.84;;;15.02;100.00
5574;BME280;2563;52.242;7.956;2023-05-09T04:39:37;100460.50;;;15.07;100.00
5574;BME280;2563;52.242;7.956;2023-05-09T04:42:03;100466.44;;;15.09;100.00
5574;BME280;2563;52.242;7.956;2023-05-09T04:44:28;100483.41;;;15.17;100.00
5574;BME280;2563;52.242;7.956;2023-05-09T04:46:53;100476.22;;;15.23;100.00
5574;BME280;2563;52.242;7.956;2023-05-09T04:49:19;100477.97;;;15.23;100.00
5574;BME280;2563;52.242;7.956;2023-05-09T04:51:44;100495.06;;;15.27;100.00
5574;BME280;2563;52.242;7.956;2023-05-09T04:54:10;100494.94;;;15.30;100.00
5574;BME280;2563;52.242;7.956;2023-05-09T04:56:35;100494.78;;;15.33;100.00
5574;BME280;2563;52.242;7.956;2023-05-09T04:59:00;100489.75;;;15.30;100.00
5574;BME280;2563;52.242;7.956;2023-05-09T05:01:26;100495.69;;;15.32;100.00
5574;BME280;2563;52.242;7.956;2023-05-09T05:03:51;100489.59;;;15.33;100.00
5574;BME280;2563;52.242;7.956;2023-05-09T05:06:16;100520.19;;;15.45;100.00
5574;BME280;2563;52.242;7.956;2023-05-09T05:08:42;100516.41;;;15.52;100.00
5574;BME280;2563;52.242;7.956;2023-05-09T05:11:07;100523.75;;;15.62;100.00
5574;BME280;2563;52.242;7.956;2023-05-09T05:13:33;100518.44;;;15.65;100.00
5574;BME280;2563;52.242;7.956;2023-05-09T05:15:58;100516.22;;;15.76;100.00
5574;BME280;2563;52.242;7.956;2023-05-09T05:18:23;100510.25;;;15.93;100.00
5574;BME280;2563;52.242;7.956;2023-05-09T05:20:49;100511.91;;;15.94;100.00
5574;BME280;2563;52.242;7.956;2023-05-09T05:23:15;100511.47;;;16.03;100.00
5574;BME280;2563;52.242;7.956;2023-05-09T05:25:40;100510.88;;;16.15;100.00
5574;BME280;2563;52.242;7.956;2023-05-09T05:28:05;100521.84;;;16.22;100.00
5574;BME280;2563;52.242;7.956;2023-05-09T05:30:31;100522.16;;;16.51;100.00
5574;BME280;2563;52.242;7.956;2023-05-09T05:32:56;100527.97;;;16.73;100.00
5574;BME280;2563;52.242;7.956;2023-05-09T05:35:21;100518.59;;;16.88;100.00
5574;BME280;2563;52.242;7.956;2023-05-09T05:37:48;100513.84;;;16.96;100.00
5574;BME280;2563;52.242;7.956;2023-05-09T05:40:14;100515.81;;;17.09;100.00
5574;BME280;2563;52.242;7.956;2023-05-09T05:42:40;100504.28;;;16.97;100.00
5574;BME280;2563;52.242;7.956;2023-05-09T05:45:05;100514.25;;;16.89;100.00
5574;BME280;2563;52.242;7.956;2023-05-09T05:47:35;100515.00;;;16.91;100.00
5574;BME280;2563;52.242;7.956;2023-05-09T05:50:02;100505.06;;;16.82;100.00
5574;BME280;2563;52.242;7.956;2023-05-09T05:52:28;100515.63;;;16.78;100.00
5574;BME280;2563;52.242;7.956;2023-05-09T05:54:54;100543.38;;;16.95;100.00
5574;BME280;2563;52.242;7.956;2023-05-09T05:57:19;100560.84;;;17.09;100.00
5574;BME280;2563;52.242;7.956;2023-05-09T05:59:49;100541.59;;;17.13;100.00
5574;BME280;2563;52.242;7.956;2023-05-09T06:02:17;100560.09;;;17.40;100.00
5574;BME280;2563;52.242;7.956;2023-05-09T06:04:43;100559.97;;;17.59;100.00
5574;BME280;2563;52.242;7.956;2023-05-09T06:07:09;100572.00;;;17.78;100.00
5574;BME280;2563;52.242;7.956;2023-05-09T06:09:38;100518.50;;;17.56;100.00
5574;BME280;2563;52.242;7.956;2023-05-09T06:12:03;100559.72;;;17.81;100.00
5574;BME280;2563;52.242;7.956;2023-05-09T06:14:29;100578.59;;;18.17;100.00
5574;BME280;2563;52.242;7.956;2023-05-09T06:16:54;100561.69;;;18.24;100.00
5574;BME280;2563;52.242;7.956;2023-05-09T06:19:20;100565.88;;;18.42;100.00
5574;BME280;2563;52.242;7.956;2023-05-09T06:21:45;100577.25;;;18.71;100.00
5574;BME280;2563;52.242;7.956;2023-05-09T06:24:10;100536.56;;;18.53;100.00
5574;BME280;2563;52.242;7.956;2023-05-09T06:26:36;100534.47;;;18.30;100.00
5574;BME280;2563;52.242;7.956;2023-05-09T06:29:02;100523.19;;;18.29;100.00
5574;BME280;2563;52.242;7.956;2023-05-09T06:31:28;100551.38;;;18.22;100.00
5574;BME280;2563;52.242;7.956;2023-05-09T06:33:54;100575.78;;;18.52;100.00
5574;BME280;2563;52.242;7.956;2023-05-09T06:36:19;100567.41;;;18.46;100.00
5574;BME280;2563;52.242;7.956;2023-05-09T06:38:45;100587.97;;;18.97;100.00
5574;BME280;2563;52.242;7.956;2023-05-09T06:41:10;100590.50;;;18.99;100.00
5574;BME280;2563;52.242;7.956;2023-05-09T06:43:35;100524.19;;;18.73;100.00
5574;BME280;2563;52.242;7.956;2023-05-09T06:46:01;100524.00;;;18.45;100.00
5574;BME280;2563;52.242;7.956;2023-05-09T06:48:26;100521.34;;;18.31;100.00
5574;BME280;2563;52.242;7.956;2023-05-09T06:50:52;100540.00;;;18.23;100.00
5574;BME280;2563;52.242;7.956;2023-05-09T06:53:17;100576.75;;;18.65;100.00
5574;BME280;2563;52.242;7.956;2023-05-09T06:55:43;100518.25;;;18.55;100.00
5574;BME280;2563;52.242;7.956;2023-05-09T06:58:08;100549.47;;;19.01;100.00
5574;BME280;2563;52.242;7.956;2023-05-09T07:00:35;100522.34;;;18.89;100.00
5574;BME280;2563;52.242;7.956;2023-05-09T07:03:00;100520.41;;;18.92;100.00
5574;BME280;2563;52.242;7.956;2023-05-09T07:05:26;100521.16;;;18.95;100.00
5574;BME280;2563;52.242;7.956;2023-05-09T07:07:51;100503.75;;;18.65;100.00
5574;BME280;2563;52.242;7.956;2023-05-09T07:10:19;100495.00;;;18.66;100.00
5574;BME280;2563;52.242;7.956;2023-05-09T07:12:46;100513.00;;;18.70;100.00
5574;BME280;2563;52.242;7.956;2023-05-09T07:15:11;100547.84;;;19.14;100.00
5574;BME280;2563;52.242;7.956;2023-05-09T07:17:37;100558.88;;;19.89;100.00
5574;BME280;2563;52.242;7.956;2023-05-09T07:20:02;100489.06;;;19.64;100.00
5574;BME280;2563;52.242;7.956;2023-05-09T07:22:29;100472.22;;;19.27;100.00
5574;BME280;2563;52.242;7.956;2023-05-09T07:24:54;100499.72;;;19.47;100.00
5574;BME280;2563;52.242;7.956;2023-05-09T07:27:19;100449.44;;;19.02;100.00
5574;BME280;2563;52.242;7.956;2023-05-09T07:29:45;100512.19;;;19.42;100.00
5574;BME280;2563;52.242;7.956;2023-05-09T07:32:10;100476.91;;;19.22;100.00
5574;BME280;2563;52.242;7.956;2023-05-09T07:34:35;100464.34;;;19.14;100.00
5574;BME280;2563;52.242;7.956;2023-05-09T07:37:01;100479.31;;;19.25;100.00
5574;BME280;2563;52.242;7.956;2023-05-09T07:39:26;100499.47;;;19.37;100.00
5574;BME280;2563;52.242;7.956;2023-05-09T07:41:52;100478.88;;;19.32;100.00
5574;BME280;2563;52.242;7.956;2023-05-09T07:44:17;100433.13;;;18.98;100.00
5574;BME280;2563;52.242;7.956;2023-05-09T07:46:43;100421.19;;;18.65;100.00
5574;BME280;2563;52.242;7.956;2023-05-09T07:49:08;100413.41;;;18.35;100.00
5574;BME280;2563;52.242;7.956;2023-05-09T07:51:33;100452.16;;;18.56;100.00
5574;BME280;2563;52.242;7.956;2023-05-09T07:53:59;100416.38;;;18.43;100.00
5574;BME280;2563;52.242;7.956;2023-05-09T07:56:24;100435.78;;;18.54;100.00
5574;BME280;2563;52.242;7.956;2023-05-09T07:58:50;100427.03;;;18.69;100.00
5574;BME280;2563;52.242;7.956;2023-05-09T08:01:16;100443.66;;;18.97;100.00
5574;BME280;2563;52.242;7.956;2023-05-09T08:03:41;100423.56;;;18.84;100.00
5574;BME280;2563;52.242;7.956;2023-05-09T08:06:07;100423.81;;;18.94;100.00
5574;BME280;2563;52.242;7.956;2023-05-09T08:08:32;100375.06;;;18.52;100.00
5574;BME280;2563;52.242;7.956;2023-05-09T08:10:58;100410.13;;;18.76;100.00
5574;BME280;2563;52.242;7.956;2023-05-09T08:13:23;100392.84;;;18.74;100.00
5574;BME280;2563;52.242;7.956;2023-05-09T08:15:49;100358.88;;;18.61;100.00
5574;BME280;2563;52.242;7.956;2023-05-09T08:18:14;100395.09;;;18.65;100.00
5574;BME280;2563;52.242;7.956;2023-05-09T08:20:40;100365.56;;;18.65;100.00
5574;BME280;2563;52.242;7.956;2023-05-09T08:23:05;100387.88;;;18.85;100.00
5574;BME280;2563;52.242;7.956;2023-05-09T08:25:31;100404.13;;;19.03;100.00
5574;BME280;2563;52.242;7.956;2023-05-09T08:27:57;100372.09;;;19.01;100.00
5574;BME280;2563;52.242;7.956;2023-05-09T08:30:22;100398.75;;;19.06;100.00
5574;BME280;2563;52.242;7.956;2023-05-09T08:32:47;100383.06;;;19.20;100.00
5574;BME280;2563;52.242;7.956;2023-05-09T08:35:13;100368.63;;;19.15;100.00
5574;BME280;2563;52.242;7.956;2023-05-09T08:37:38;100361.19;;;19.08;100.00
5574;BME280;2563;52.242;7.956;2023-05-09T08:40:05;100338.56;;;18.95;100.00
5574;BME280;2563;52.242;7.956;2023-05-09T08:42:32;100344.44;;;18.98;100.00
5574;BME280;2563;52.242;7.956;2023-05-09T08:44:59;100311.22;;;18.87;100.00
5574;BME280;2563;52.242;7.956;2023-05-09T08:47:26;100301.34;;;18.49;100.00
5574;BME280;2563;52.242;7.956;2023-05-09T08:49:52;100327.41;;;18.64;100.00
5574;BME280;2563;52.242;7.956;2023-05-09T08:52:19;100287.00;;;18.57;100.00
5574;BME280;2563;52.242;7.956;2023-05-09T08:54:45;100296.59;;;18.56;100.00
5574;BME280;2563;52.242;7.956;2023-05-09T08:57:10;100289.88;;;18.52;100.00
5574;BME280;2563;52.242;7.956;2023-05-09T08:59:36;100296.13;;;18.49;100.00
5574;BME280;2563;52.242;7.956;2023-05-09T09:02:05;100288.50;;;18.61;100.00
5574;BME280;2563;52.242;7.956;2023-05-09T09:04:31;100281.25;;;18.52;100.00
5574;BME280;2563;52.242;7.956;2023-05-09T09:06:57;100278.91;;;18.61;100.00
5574;BME280;2563;52.242;7.956;2023-05-09T09:09:24;100309.13;;;18.92;100.00
5574;BME280;2563;52.242;7.956;2023-05-09T09:11:50;100325.22;;;19.41;100.00
5574;BME280;2563;52.242;7.956;2023-05-09T09:14:23;100302.66;;;19.40;100.00
5574;BME280;2563;52.242;7.956;2023-05-09T09:16:53;100273.28;;;19.23;100.00
5574;BME280;2563;52.242;7.956;2023-05-09T09:19:21;100305.81;;;19.45;100.00
5574;BME280;2563;52.242;7.956;2023-05-09T09:21:52;100294.63;;;19.43;100.00
5574;BME280;2563;52.242;7.956;2023-05-09T09:24:21;100323.25;;;19.71;100.00
5574;BME280;2563;52.242;7.956;2023-05-09T09:26:48;100315.22;;;20.00;100.00
5574;BME280;2563;52.242;7.956;2023-05-09T09:29:15;100262.75;;;19.77;100.00
5574;BME280;2563;52.242;7.956;2023-05-09T09:31:44;100267.25;;;19.75;100.00
5574;BME280;2563;52.242;7.956;2023-05-09T09:34:11;100310.53;;;20.05;100.00
5574;BME280;2563;52.242;7.956;2023-05-09T09:36:38;100295.47;;;20.22;100.00
5574;BME280;2563;52.242;7.956;2023-05-09T09:39:04;100301.09;;;20.41;100.00
5574;BME280;2563;52.242;7.956;2023-05-09T09:43:56;100303.66;;;21.40;100.00
5574;BME280;2563;52.242;7.956;2023-05-09T09:46:22;100289.41;;;21.44;100.00
5574;BME280;2563;52.242;7.956;2023-05-09T09:48:48;100284.31;;;21.43;100.00
5574;BME280;2563;52.242;7.956;2023-05-09T09:51:18;100271.47;;;21.51;100.00
5574;BME280;2563;52.242;7.956;2023-05-09T09:53:45;100266.56;;;20.74;100.00
5574;BME280;2563;52.242;7.956;2023-05-09T09:56:11;100261.91;;;20.41;100.00
5574;BME280;2563;52.242;7.956;2023-05-09T09:58:36;100271.41;;;20.42;100.00
5574;BME280;2563;52.242;7.956;2023-05-09T10:01:11;100281.03;;;20.54;100.00
5574;BME280;2563;52.242;7.956;2023-05-09T10:03:42;100278.09;;;20.59;100.00
5574;BME280;2563;52.242;7.956;2023-05-09T10:06:10;100258.84;;;20.47;100.00
5574;BME280;2563;52.242;7.956;2023-05-09T10:08:36;100282.38;;;20.60;100.00
5574;BME280;2563;52.242;7.956;2023-05-09T10:11:02;100244.84;;;20.48;100.00
5574;BME280;2563;52.242;7.956;2023-05-09T10:13:28;100255.41;;;20.34;100.00
5574;BME280;2563;52.242;7.956;2023-05-09T10:15:55;100232.13;;;20.18;100.00
5574;BME280;2563;52.242;7.956;2023-05-09T10:18:27;100268.47;;;20.47;100.00
5574;BME280;2563;52.242;7.956;2023-05-09T10:20:53;100247.88;;;20.42;100.00
5574;BME280;2563;52.242;7.956;2023-05-09T10:23:22;100246.72;;;20.46;100.00
5574;BME280;2563;52.242;7.956;2023-05-09T10:28:26;100191.59;;;20.00;100.00
5574;BME280;2563;52.242;7.956;2023-05-09T10:33:46;100183.13;;;19.45;100.00
5574;BME280;2563;52.242;7.956;2023-05-09T10:36:14;100176.44;;;19.41;100.00
5574;BME280;2563;52.242;7.956;2023-05-09T10:38:41;100151.03;;;19.17;100.00
5574;BME280;2563;52.242;7.956;2023-05-09T10:41:07;100120.91;;;18.86;100.00
5574;BME280;2563;52.242;7.956;2023-05-09T10:43:34;100163.75;;;19.09;100.00
5574;BME280;2563;52.242;7.956;2023-05-09T10:46:03;100118.03;;;19.03;100.00
5574;BME280;2563;52.242;7.956;2023-05-09T10:48:31;100117.09;;;18.91;100.00
5574;BME280;2563;52.242;7.956;2023-05-09T10:50:57;100125.16;;;19.14;100.00
5574;BME280;2563;52.242;7.956;2023-05-09T10:53:39;100090.78;;;18.95;100.00
5574;BME280;2563;52.242;7.956;2023-05-09T10:56:05;100107.59;;;19.42;100.00
5574;BME280;2563;52.242;7.956;2023-05-09T10:58:32;100060.22;;;19.48;100.00
5574;BME280;2563;52.242;7.956;2023-05-09T11:01:03;100046.56;;;19.31;100.00
5574;BME280;2563;52.242;7.956;2023-05-09T11:06:53;100067.41;;;19.70;100.00
5574;BME280;2563;52.242;7.956;2023-05-09T11:09:35;100056.25;;;19.55;100.00
5574;BME280;2563;52.242;7.956;2023-05-09T11:17:13;100101.81;;;20.86;100.00
5574;BME280;2563;52.242;7.956;2023-05-09T11:22:24;100078.91;;;21.23;100.00
5574;BME280;2563;52.242;7.956;2023-05-09T11:27:25;100070.28;;;20.76;100.00
5574;BME280;2563;52.242;7.956;2023-05-09T11:29:58;100070.72;;;20.70;100.00
5574;BME280;2563;52.242;7.956;2023-05-09T11:32:40;100037.47;;;20.24;100.00
5574;BME280;2563;52.242;7.956;2023-05-09T11:37:45;100006.16;;;19.24;100.00
5574;BME280;2563;52.242;7.956;2023-05-09T11:40:13;99977.56;;;19.10;100.00
5574;BME280;2563;52.242;7.956;2023-05-09T11:42:42;99961.72;;;19.13;100.00
5574;BME280;2563;52.242;7.956;2023-05-09T11:45:09;99914.97;;;18.71;100.00
5574;BME280;2563;52.242;7.956;2023-05-09T11:47:38;99948.88;;;19.23;100.00
5574;BME280;2563;52.242;7.956;2023-05-09T11:50:11;99938.09;;;19.64;100.00
5574;BME280;2563;52.242;7.956;2023-05-09T11:52:38;99894.31;;;19.81;100.00
5574;BME280;2563;52.242;7.956;2023-05-09T11:55:10;99886.06;;;19.98;100.00
5574;BME280;2563;52.242;7.956;2023-05-09T11:57:45;99867.72;;;19.87;100.00
5574;BME280;2563;52.242;7.956;2023-05-09T12:00:11;99870.47;;;19.85;100.00
5574;BME280;2563;52.242;7.956;2023-05-09T12:02:37;99841.50;;;19.64;100.00
5574;BME280;2563;52.242;7.956;2023-05-09T12:05:14;99845.34;;;19.71;100.00
5574;BME280;2563;52.242;7.956;2023-05-09T12:07:40;99832.53;;;19.68;100.00
5574;BME280;2563;52.242;7.956;2023-05-09T12:10:13;99799.44;;;19.45;100.00
5574;BME280;2563;52.242;7.956;2023-05-09T12:12:44;99828.97;;;19.45;100.00
5574;BME280;2563;52.242;7.956;2023-05-09T12:15:11;99812.66;;;19.30;100.00
5574;BME280;2563;52.242;7.956;2023-05-09T12:17:38;99800.97;;;19.23;100.00
5574;BME280;2563;52.242;7.956;2023-05-09T12:20:03;99835.47;;;19.40;100.00
5574;BME280;2563;52.242;7.956;2023-05-09T12:22:30;99805.81;;;19.17;100.00
5574;BME280;2563;52.242;7.956;2023-05-09T12:24:58;99838.19;;;19.38;100.00
5574;BME280;2563;52.242;7.956;2023-05-09T12:27:25;99840.47;;;19.43;100.00
5574;BME280;2563;52.242;7.956;2023-05-09T12:29:53;99845.00;;;20.11;100.00
5574;BME280;2563;52.242;7.956;2023-05-09T12:32:19;99806.78;;;20.22;100.00
5574;BME280;2563;52.242;7.956;2023-05-09T12:34:45;99832.94;;;20.33;100.00
5574;BME280;2563;52.242;7.956;2023-05-09T12:37:17;99830.56;;;20.52;100.00
5574;BME280;2563;52.242;7.956;2023-05-09T12:39:45;99821.75;;;20.87;100.00
5574;BME280;2563;52.242;7.956;2023-05-09T12:42:26;99837.81;;;20.94;100.00
5574;BME280;2563;52.242;7.956;2023-05-09T12:44:53;99789.44;;;20.77;100.00
5574;BME280;2563;52.242;7.956;2023-05-09T12:47:18;99806.56;;;20.81;100.00
5574;BME280;2563;52.242;7.956;2023-05-09T12:49:47;99811.44;;;20.74;100.00
5574;BME280;2563;52.242;7.956;2023-05-09T12:52:17;99822.97;;;20.72;100.00
5574;BME280;2563;52.242;7.956;2023-05-09T12:54:46;99806.69;;;20.68;100.00
5574;BME280;2563;52.242;7.956;2023-05-09T12:57:23;99823.69;;;20.63;100.00
5574;BME280;2563;52.242;7.956;2023-05-09T12:59:48;99828.06;;;20.73;100.00
5574;BME280;2563;52.242;7.956;2023-05-09T13:02:14;99819.88;;;20.67;100.00
5574;BME280;2563;52.242;7.956;2023-05-09T13:04:39;99833.91;;;20.77;100.00
5574;BME280;2563;52.242;7.956;2023-05-09T13:07:08;99808.47;;;20.56;100.00
5574;BME280;2563;52.242;7.956;2023-05-09T13:09:34;99820.34;;;20.60;100.00
5574;BME280;2563;52.242;7.956;2023-05-09T13:12:01;99847.69;;;20.79;100.00
5574;BME280;2563;52.242;7.956;2023-05-09T13:14:28;99825.44;;;20.51;100.00
5574;BME280;2563;52.242;7.956;2023-05-09T13:16:53;99838.03;;;20.46;100.00
5574;BME280;2563;52.242;7.956;2023-05-09T13:19:19;99815.91;;;19.69;100.00
5574;BME280;2563;52.242;7.956;2023-05-09T13:21:44;99834.19;;;19.69;100.00
5574;BME280;2563;52.242;7.956;2023-05-09T13:24:10;99834.25;;;19.57;100.00
5574;BME280;2563;52.242;7.956;2023-05-09T13:26:35;99792.88;;;19.15;100.00
5574;BME280;2563;52.242;7.956;2023-05-09T13:29:00;99767.53;;;18.80;100.00
5574;BME280;2563;52.242;7.956;2023-05-09T13:31:26;99744.19;;;18.66;100.00
5574;BME280;2563;52.242;7.956;2023-05-09T13:33:51;99745.66;;;18.70;100.00
5574;BME280;2563;52.242;7.956;2023-05-09T13:36:17;99755.19;;;18.95;100.00
5574;BME280;2563;52.242;7.956;2023-05-09T13:38:43;99728.03;;;18.98;100.00